Hamby, Texas
Current Conditions -  °F | °C
As of 5:52 AM on Thursday 29 Jan 2015 (Local Time) from KABI Reporting Station
Clear Clear  
Wind Chill: 53°   Ceiling: Unl
Heat Index: 53°   Visibility: 10mi
Dew Point: 42°   Wind: 7mph
Humidity: 66%   Direction: 10°N
Pressure: 30.18"   Gusts: NA
Location:  32.4816°N, 99.6841°W
Report Text: KABI 291152Z AUTO 01006KT 10SM CLR 12/06 A3018 RMK AO2 SLP205 T01170056 10161 20094 53014 TSNO
Loading
Personal Weather Stations






























Interactive Weather Map New forecast layout! Learn more

10-Day Weather Forecast

Advertisements
Track Severe Weather on mobile